createdAt,value
2017-11-07T00:00:18.324Z,12.33
2017-11-07T00:02:44.975Z,14.03
2017-11-07T00:05:11.577Z,12.03
2017-11-07T00:07:38.208Z,13.63
2017-11-07T00:10:04.835Z,12.90
2017-11-07T00:12:31.479Z,12.03
2017-11-07T00:14:58.092Z,14.47
2017-11-07T00:17:24.737Z,13.27
2017-11-07T00:19:51.329Z,13.17
2017-11-07T00:22:17.924Z,13.90
2017-11-07T00:24:44.537Z,13.27
2017-11-07T00:27:11.161Z,12.97
2017-11-07T00:29:37.765Z,12.90
2017-11-07T00:32:04.424Z,13.67
2017-11-07T00:34:31.053Z,13.73
2017-11-07T00:36:57.674Z,12.53
2017-11-07T00:39:24.268Z,12.80
2017-11-07T00:41:50.905Z,15.37
2017-11-07T00:44:17.512Z,13.30
2017-11-07T00:46:44.118Z,13.00
2017-11-07T00:49:10.817Z,12.83
2017-11-07T00:51:37.411Z,13.23
2017-11-07T00:54:04.033Z,13.50
2017-11-07T00:56:30.677Z,13.00
2017-11-07T00:58:57.290Z,13.27
2017-11-07T01:01:23.901Z,11.67
2017-11-07T01:03:50.559Z,11.90
2017-11-07T01:06:17.778Z,13.80
2017-11-07T01:08:44.395Z,13.40
2017-11-07T01:11:10.999Z,13.33
2017-11-07T01:13:37.596Z,14.70
2017-11-07T01:16:04.223Z,13.80
2017-11-07T01:18:30.862Z,14.20
2017-11-07T01:20:57.472Z,14.10
2017-11-07T01:23:24.696Z,13.80
2017-11-07T01:25:51.305Z,12.80
2017-11-07T01:28:17.918Z,13.73
2017-11-07T01:30:44.535Z,14.80
2017-11-07T01:33:11.150Z,14.93
2017-11-07T01:35:37.776Z,13.47
2017-11-07T01:38:04.397Z,13.77
2017-11-07T01:40:31.698Z,12.07
2017-11-07T01:42:58.316Z,11.70
2017-11-07T01:45:24.921Z,11.53
2017-11-07T01:47:51.588Z,11.30
2017-11-07T01:50:18.186Z,9.10
2017-11-07T01:52:44.805Z,10.03
2017-11-07T01:55:11.419Z,10.27
2017-11-07T01:57:38.036Z,10.20
2017-11-07T02:00:04.645Z,10.90
2017-11-07T02:02:31.243Z,9.30
2017-11-07T02:04:57.849Z,7.23
2017-11-07T02:07:24.456Z,8.90
2017-11-07T02:09:51.138Z,9.67
2017-11-07T02:12:17.747Z,9.03
2017-11-07T02:14:44.368Z,8.67
2017-11-07T02:17:11.012Z,11.33
2017-11-07T02:19:37.671Z,9.83
2017-11-07T02:22:04.269Z,9.40
2017-11-07T02:24:30.905Z,8.80
2017-11-07T02:26:57.507Z,7.10
2017-11-07T02:29:24.117Z,8.60
2017-11-07T02:31:51.551Z,8.60
2017-11-07T02:34:18.161Z,10.27
2017-11-07T02:36:44.765Z,9.60
2017-11-07T02:39:11.427Z,10.70
2017-11-07T02:41:38.037Z,10.90
2017-11-07T02:44:04.646Z,8.77
2017-11-07T02:46:31.296Z,10.57
2017-11-07T02:48:57.909Z,9.57
2017-11-07T02:51:24.530Z,9.23
2017-11-07T02:53:51.150Z,9.30
2017-11-07T02:56:17.753Z,11.23
2017-11-07T02:58:44.365Z,11.90
2017-11-07T03:01:10.989Z,10.63
2017-11-07T03:03:37.618Z,9.40
2017-11-07T03:06:04.221Z,12.03
2017-11-07T03:08:30.829Z,11.53
2017-11-07T03:10:57.428Z,12.97
2017-11-07T03:13:24.045Z,12.57
2017-11-07T03:15:50.662Z,15.20
2017-11-07T03:18:17.288Z,12.87
2017-11-07T03:20:43.892Z,13.10
2017-11-07T03:23:10.923Z,13.73
2017-11-07T03:25:37.533Z,11.93
2017-11-07T03:28:04.205Z,12.90
2017-11-07T03:30:30.817Z,12.30
2017-11-07T03:32:57.436Z,14.10
2017-11-07T03:35:24.341Z,12.90
2017-11-07T03:37:50.951Z,12.70
2017-11-07T03:40:17.628Z,14.97
2017-11-07T03:42:44.292Z,12.73
2017-11-07T03:45:10.929Z,11.50
2017-11-07T03:47:37.853Z,14.47
2017-11-07T03:50:04.462Z,12.40
2017-11-07T03:52:31.080Z,12.73
2017-11-07T03:54:57.745Z,14.33
2017-11-07T03:57:25.426Z,13.63
2017-11-07T03:59:52.034Z,11.83
2017-11-07T04:02:18.720Z,12.80
2017-11-07T04:04:45.337Z,15.60
2017-11-07T04:07:11.949Z,12.67
2017-11-07T04:09:38.582Z,13.80
2017-11-07T04:12:05.206Z,13.07
2017-11-07T04:14:32.442Z,12.70
2017-11-07T04:16:59.040Z,12.53
2017-11-07T04:19:25.644Z,14.03
2017-11-07T04:21:52.248Z,13.90
2017-11-07T04:24:18.910Z,15.07
2017-11-07T04:26:45.509Z,16.90
2017-11-07T04:29:12.125Z,15.43
2017-11-07T04:31:38.757Z,16.10
2017-11-07T04:34:05.387Z,18.77
2017-11-07T04:36:32.017Z,15.80
2017-11-07T04:38:58.625Z,14.50
2017-11-07T04:41:25.271Z,15.77
2017-11-07T04:43:51.886Z,15.47
2017-11-07T04:46:18.502Z,18.43
2017-11-07T04:48:45.193Z,16.13
2017-11-07T04:51:11.809Z,12.67
2017-11-07T04:53:38.438Z,16.20
2017-11-07T04:56:05.053Z,16.60
2017-11-07T04:58:31.682Z,16.00
2017-11-07T05:00:58.279Z,14.97
2017-11-07T05:03:24.910Z,13.00
2017-11-07T05:05:54.216Z,13.57
2017-11-07T05:08:20.835Z,14.07
2017-11-07T05:10:47.470Z,14.07
2017-11-07T05:13:14.131Z,13.90
2017-11-07T05:15:40.756Z,15.77
2017-11-07T05:18:07.380Z,15.10
2017-11-07T05:20:33.990Z,14.77
2017-11-07T05:23:00.640Z,16.20
2017-11-07T05:25:27.269Z,14.70
2017-11-07T05:27:53.933Z,16.83
2017-11-07T05:30:20.547Z,17.30
2017-11-07T05:32:47.191Z,15.87
2017-11-07T05:35:13.800Z,17.03
2017-11-07T05:37:40.408Z,18.93
2017-11-07T05:40:07.760Z,23.10
2017-11-07T05:42:34.424Z,22.37
2017-11-07T05:45:01.021Z,25.17
2017-11-07T05:47:27.654Z,27.30
2017-11-07T05:49:54.268Z,27.70
2017-11-07T05:52:20.880Z,23.20
2017-11-07T05:54:47.500Z,24.63
2017-11-07T05:57:14.105Z,24.63
2017-11-07T05:59:40.744Z,21.30
2017-11-07T06:02:07.349Z,26.10
2017-11-07T06:04:33.969Z,24.90
2017-11-07T06:07:00.590Z,23.53
2017-11-07T06:09:27.186Z,22.47
2017-11-07T06:11:53.813Z,25.97
2017-11-07T06:14:20.445Z,24.50
2017-11-07T06:16:47.062Z,26.00
2017-11-07T06:19:13.700Z,29.77
2017-11-07T06:21:40.316Z,23.83
2017-11-07T06:24:06.920Z,28.10
2017-11-07T06:26:33.550Z,29.50
2017-11-07T06:29:00.898Z,26.73
2017-11-07T06:31:27.520Z,24.87
2017-11-07T06:33:54.147Z,20.57
2017-11-07T06:36:20.797Z,21.90
2017-11-07T06:38:47.429Z,18.70
2017-11-07T06:41:14.078Z,21.27
2017-11-07T06:43:40.689Z,26.37
2017-11-07T06:46:07.335Z,25.50
2017-11-07T06:48:33.976Z,26.07
2017-11-07T06:51:00.592Z,27.93
2017-11-07T06:53:27.193Z,24.70
2017-11-07T06:55:53.868Z,26.60
2017-11-07T06:58:20.478Z,26.27
2017-11-07T07:00:47.104Z,22.17
2017-11-07T07:03:13.713Z,22.67
2017-11-07T07:05:40.341Z,23.70
2017-11-07T07:08:06.949Z,23.40
2017-11-07T07:10:33.593Z,22.13
2017-11-07T07:13:00.204Z,24.93
2017-11-07T07:15:26.805Z,27.87
2017-11-07T07:17:53.417Z,25.97
2017-11-07T07:20:20.026Z,26.23
2017-11-07T07:22:46.643Z,25.13
2017-11-07T07:25:14.441Z,24.50
2017-11-07T07:27:41.056Z,26.17
2017-11-07T07:30:07.671Z,29.90
2017-11-07T07:32:34.332Z,28.57
2017-11-07T07:35:00.952Z,24.13
2017-11-07T07:37:27.561Z,19.80
2017-11-07T07:39:54.194Z,19.03
2017-11-07T07:42:20.814Z,19.33
2017-11-07T07:44:47.473Z,18.27
2017-11-07T07:47:14.089Z,17.67
2017-11-07T07:49:40.748Z,17.80
2017-11-07T07:52:19.085Z,16.67
2017-11-07T07:54:45.703Z,17.30
2017-11-07T07:57:12.326Z,19.30
2017-11-07T07:59:38.938Z,16.27
2017-11-07T08:02:05.570Z,14.10
2017-11-07T08:04:32.168Z,15.90
2017-11-07T08:06:58.789Z,14.77
2017-11-07T08:09:25.409Z,15.43
2017-11-07T08:11:52.034Z,16.17
2017-11-07T08:14:18.642Z,14.67
2017-11-07T08:16:45.297Z,14.50
2017-11-07T08:19:11.898Z,15.90
2017-11-07T08:21:38.511Z,14.97
2017-11-07T08:24:05.132Z,15.20
2017-11-07T08:26:31.755Z,17.90
2017-11-07T08:28:58.390Z,14.70
2017-11-07T08:31:25.004Z,14.87
2017-11-07T08:33:51.604Z,16.10
2017-11-07T08:36:18.225Z,17.13
2017-11-07T08:38:44.860Z,15.00
2017-11-07T08:41:11.501Z,16.67
2017-11-07T08:43:38.114Z,15.13
2017-11-07T08:46:04.737Z,16.17
2017-11-07T08:48:31.334Z,16.53
2017-11-07T08:50:58.565Z,15.33
2017-11-07T08:53:25.185Z,15.77
2017-11-07T08:55:51.799Z,18.63
2017-11-07T08:58:18.432Z,17.70
2017-11-07T09:00:45.093Z,16.80
2017-11-07T09:03:11.715Z,16.87
2017-11-07T09:05:38.330Z,16.10
2017-11-07T09:08:04.970Z,14.83
2017-11-07T09:10:31.582Z,14.10
2017-11-07T09:12:58.221Z,13.80
2017-11-07T09:15:24.861Z,16.17
2017-11-07T09:17:51.497Z,14.53
2017-11-07T09:20:18.119Z,16.10
2017-11-07T09:22:44.746Z,15.57
2017-11-07T09:25:11.368Z,15.30
2017-11-07T09:27:38.006Z,18.10
2017-11-07T09:30:04.640Z,15.40
2017-11-07T09:32:31.252Z,16.33
2017-11-07T09:34:57.853Z,15.53
2017-11-07T09:37:24.481Z,14.40
2017-11-07T09:39:51.109Z,14.63
2017-11-07T09:42:17.722Z,15.40
2017-11-07T09:44:44.669Z,16.03
2017-11-07T09:47:11.265Z,17.70
2017-11-07T09:49:37.889Z,15.70
2017-11-07T09:52:04.503Z,17.90
2017-11-07T09:54:31.112Z,16.90
2017-11-07T09:56:57.732Z,17.10
2017-11-07T09:59:24.355Z,16.97
2017-11-07T10:01:50.969Z,17.87
2017-11-07T10:04:17.595Z,19.00
2017-11-07T10:06:44.269Z,18.20
2017-11-07T10:09:10.882Z,19.90
2017-11-07T10:11:37.494Z,19.03
2017-11-07T10:14:04.133Z,20.27
2017-11-07T10:16:30.734Z,20.10
2017-11-07T10:18:57.368Z,20.40
2017-11-07T10:21:23.990Z,20.20
2017-11-07T10:23:50.647Z,20.30
2017-11-07T10:26:17.283Z,19.70
2017-11-07T10:28:43.894Z,20.40
2017-11-07T10:31:10.538Z,20.37
2017-11-07T10:33:37.128Z,19.13
2017-11-07T10:36:03.750Z,21.97
2017-11-07T10:38:30.365Z,21.27
2017-11-07T10:40:56.978Z,20.63
2017-11-07T10:43:23.582Z,22.83
2017-11-07T10:45:50.193Z,21.90
2017-11-07T10:48:16.826Z,19.83
2017-11-07T10:50:43.459Z,21.87
2017-11-07T10:53:10.177Z,20.53
2017-11-07T10:55:36.815Z,22.27
2017-11-07T10:58:03.626Z,24.80
2017-11-07T11:00:30.386Z,24.80
2017-11-07T11:02:57.017Z,24.90
2017-11-07T11:05:23.641Z,21.10
2017-11-07T11:07:50.263Z,21.53
2017-11-07T11:10:16.887Z,21.37
2017-11-07T11:12:43.517Z,22.13
2017-11-07T11:15:10.141Z,22.33
2017-11-07T11:17:36.777Z,19.43
2017-11-07T11:20:03.414Z,20.10
2017-11-07T11:22:30.045Z,18.67
2017-11-07T11:24:56.909Z,19.80
2017-11-07T11:27:23.545Z,17.47
2017-11-07T11:29:50.188Z,18.37
2017-11-07T11:32:16.826Z,22.67
2017-11-07T11:34:43.448Z,20.20
2017-11-07T11:37:10.091Z,19.70
2017-11-07T11:39:36.748Z,17.90
2017-11-07T11:42:03.373Z,21.53
2017-11-07T11:44:30.033Z,33.80
2017-11-07T11:46:56.637Z,22.43
2017-11-07T11:49:23.656Z,25.77
2017-11-07T11:51:50.269Z,25.27
2017-11-07T11:54:16.909Z,23.50
2017-11-07T11:56:43.571Z,18.63
2017-11-07T11:59:10.187Z,15.90
2017-11-07T12:01:36.808Z,17.10
2017-11-07T12:04:03.418Z,19.10
2017-11-07T12:06:30.049Z,18.37
2017-11-07T12:08:56.654Z,17.00
2017-11-07T12:11:23.276Z,20.53
2017-11-07T12:13:49.888Z,18.10
2017-11-07T12:16:16.508Z,20.20
2017-11-07T12:18:43.115Z,20.00
2017-11-07T12:21:09.770Z,25.87
2017-11-07T12:23:36.395Z,19.07
2017-11-07T12:26:03.025Z,20.60
2017-11-07T12:28:29.639Z,19.13
2017-11-07T12:30:56.245Z,18.50
2017-11-07T12:33:22.853Z,17.93
2017-11-07T12:35:49.486Z,19.47
2017-11-07T12:38:16.122Z,20.57
2017-11-07T12:40:42.733Z,18.87
2017-11-07T12:43:09.370Z,19.40
2017-11-07T12:45:36.189Z,21.80
2017-11-07T12:48:02.812Z,19.97
2017-11-07T12:50:35.445Z,19.27
2017-11-07T12:53:02.084Z,22.17
2017-11-07T12:55:28.716Z,22.40
2017-11-07T12:57:56.257Z,20.60
2017-11-07T13:00:22.886Z,21.10
2017-11-07T13:02:50.137Z,21.03
2017-11-07T13:05:16.954Z,21.90
2017-11-07T13:07:43.590Z,20.80
2017-11-07T13:10:10.280Z,21.83
2017-11-07T13:12:36.903Z,21.63
2017-11-07T13:15:04.395Z,21.60
2017-11-07T13:17:31.015Z,21.50
2017-11-07T13:19:57.635Z,21.73
2017-11-07T13:22:24.262Z,21.43
2017-11-07T13:24:50.881Z,22.30
2017-11-07T13:27:17.490Z,21.47
2017-11-07T13:29:44.103Z,20.27
2017-11-07T13:32:11.445Z,20.27
2017-11-07T13:34:38.122Z,21.53
2017-11-07T13:37:04.763Z,22.57
2017-11-07T13:39:31.382Z,22.43
2017-11-07T13:41:58.015Z,20.97
2017-11-07T13:44:24.623Z,21.30
2017-11-07T13:46:51.244Z,21.27
2017-11-07T13:49:17.868Z,21.73
2017-11-07T13:51:44.506Z,22.37
2017-11-07T13:54:11.148Z,20.67
2017-11-07T13:56:37.767Z,23.00
2017-11-07T13:59:04.381Z,23.93
2017-11-07T14:01:31.015Z,23.23
2017-11-07T14:03:57.693Z,23.10
2017-11-07T14:06:24.278Z,23.67
2017-11-07T14:08:50.913Z,24.80
2017-11-07T14:11:17.549Z,23.93
2017-11-07T14:13:44.189Z,20.90
2017-11-07T14:16:10.829Z,22.50
2017-11-07T14:18:37.470Z,23.47
2017-11-07T14:21:04.081Z,23.77
2017-11-07T14:23:31.423Z,20.90
2017-11-07T14:25:58.045Z,26.37
2017-11-07T14:28:24.681Z,24.33
2017-11-07T14:30:51.312Z,23.77
2017-11-07T14:33:17.941Z,24.13
2017-11-07T14:35:44.566Z,23.60
2017-11-07T14:38:11.178Z,24.70
2017-11-07T14:40:37.826Z,23.43
2017-11-07T14:43:04.482Z,24.77
2017-11-07T14:45:31.111Z,24.70
2017-11-07T14:47:57.757Z,24.23
2017-11-07T14:50:24.393Z,23.40
2017-11-07T14:52:51.720Z,25.63
2017-11-07T14:55:18.340Z,24.87
2017-11-07T14:57:45.010Z,23.90
2017-11-07T15:00:11.614Z,26.23
2017-11-07T15:02:38.273Z,28.40
2017-11-07T15:05:04.893Z,30.90
2017-11-07T15:07:31.813Z,35.50
2017-11-07T15:09:58.448Z,26.80
2017-11-07T15:12:25.070Z,27.90
2017-11-07T15:14:51.705Z,26.53
2017-11-07T15:17:18.326Z,24.77
2017-11-07T15:19:44.978Z,24.70
2017-11-07T15:22:11.600Z,27.37
2017-11-07T15:24:38.456Z,29.97
2017-11-07T15:27:05.853Z,30.97
2017-11-07T15:29:32.457Z,26.10
2017-11-07T15:31:59.101Z,23.13
2017-11-07T15:34:25.720Z,24.67
2017-11-07T15:36:52.339Z,25.80
2017-11-07T15:39:19.100Z,29.67
2017-11-07T15:41:46.165Z,22.90
2017-11-07T15:44:12.836Z,25.23
2017-11-07T15:46:39.556Z,23.07
2017-11-07T15:49:06.168Z,23.47
2017-11-07T15:51:32.794Z,23.83
2017-11-07T15:53:59.415Z,25.60
2017-11-07T15:56:26.019Z,22.63
2017-11-07T15:58:52.639Z,22.83
2017-11-07T16:01:19.263Z,25.20
2017-11-07T16:03:45.888Z,24.77
2017-11-07T16:06:12.514Z,25.80
2017-11-07T16:08:39.117Z,23.70
2017-11-07T16:11:05.727Z,25.00
2017-11-07T16:13:32.341Z,24.90
2017-11-07T16:15:58.952Z,25.10
2017-11-07T16:18:25.557Z,25.37
2017-11-07T16:20:52.185Z,25.40
2017-11-07T16:23:18.813Z,24.90
2017-11-07T16:25:45.421Z,23.30
2017-11-07T16:28:12.056Z,24.50
2017-11-07T16:30:38.663Z,25.40
2017-11-07T16:33:05.305Z,27.70
2017-11-07T16:35:31.938Z,26.83
2017-11-07T16:37:58.542Z,25.53
2017-11-07T16:40:25.202Z,25.37
2017-11-07T16:42:51.805Z,26.77
2017-11-07T16:45:18.425Z,26.10
2017-11-07T16:47:45.041Z,24.93
2017-11-07T16:50:11.665Z,25.77
2017-11-07T16:52:38.269Z,24.50
2017-11-07T16:55:04.896Z,24.70
2017-11-07T16:57:31.624Z,23.77
2017-11-07T16:59:58.241Z,26.33
2017-11-07T17:02:24.875Z,23.33
2017-11-07T17:04:51.483Z,23.43
2017-11-07T17:07:18.101Z,23.50
2017-11-07T17:09:44.736Z,21.90
2017-11-07T17:12:11.358Z,23.47
2017-11-07T17:14:37.962Z,21.73
2017-11-07T17:17:04.579Z,23.20
2017-11-07T17:19:32.941Z,23.07
2017-11-07T17:21:59.689Z,23.33
2017-11-07T17:24:26.343Z,25.80
2017-11-07T17:26:52.947Z,25.40
2017-11-07T17:29:19.580Z,23.27
2017-11-07T17:31:46.242Z,20.90
2017-11-07T17:34:12.880Z,22.17
2017-11-07T17:36:39.567Z,23.70
2017-11-07T17:39:06.178Z,24.23
2017-11-07T17:41:32.805Z,22.23
2017-11-07T17:43:59.416Z,22.03
2017-11-07T17:46:26.061Z,23.90
2017-11-07T17:48:52.691Z,21.67
2017-11-07T17:51:19.325Z,20.40
2017-11-07T17:53:45.984Z,22.47
2017-11-07T17:56:12.575Z,22.37
2017-11-07T17:58:39.253Z,21.70
2017-11-07T18:01:05.829Z,22.47
2017-11-07T18:03:32.441Z,21.27
2017-11-07T18:05:59.124Z,19.50
2017-11-07T18:08:25.750Z,24.80
2017-11-07T18:10:52.378Z,23.07
2017-11-07T18:13:19.018Z,22.40
2017-11-07T18:15:45.655Z,21.00
2017-11-07T18:18:12.307Z,20.27
2017-11-07T18:20:38.989Z,20.03
2017-11-07T18:23:05.623Z,23.20
2017-11-07T18:25:32.245Z,22.60
2017-11-07T18:27:58.856Z,21.13
2017-11-07T18:30:25.591Z,21.50
2017-11-07T18:32:52.249Z,21.87
2017-11-07T18:35:18.882Z,22.50
2017-11-07T18:37:45.586Z,24.90
2017-11-07T18:40:13.144Z,23.13
2017-11-07T18:42:39.891Z,24.43
2017-11-07T18:45:06.520Z,25.37
2017-11-07T18:47:33.168Z,23.63
2017-11-07T18:49:59.801Z,23.10
2017-11-07T18:52:26.442Z,23.40
2017-11-07T18:54:53.057Z,23.67
2017-11-07T18:57:19.906Z,26.33
2017-11-07T18:59:46.668Z,23.80
2017-11-07T19:02:13.306Z,23.67
2017-11-07T19:04:39.969Z,22.83
2017-11-07T19:07:06.723Z,25.13
2017-11-07T19:09:33.385Z,24.20
2017-11-07T19:11:59.998Z,25.07
2017-11-07T19:14:26.756Z,25.40
2017-11-07T19:16:53.449Z,24.77
2017-11-07T19:19:20.129Z,26.97
2017-11-07T19:21:46.849Z,28.27
2017-11-07T19:24:13.789Z,23.87
2017-11-07T19:26:40.547Z,27.80
2017-11-07T19:29:07.237Z,26.10
2017-11-07T19:31:34.141Z,28.07
2017-11-07T19:34:00.736Z,29.40
2017-11-07T19:36:27.358Z,27.83
2017-11-07T19:38:54.417Z,27.60
2017-11-07T19:41:21.054Z,26.77
2017-11-07T19:43:47.712Z,27.63
2017-11-07T19:46:14.353Z,26.90
2017-11-07T19:48:41.025Z,29.70
2017-11-07T19:51:07.679Z,27.70
2017-11-07T19:53:34.305Z,28.37
2017-11-07T19:56:00.924Z,29.07
2017-11-07T19:58:27.550Z,27.73
2017-11-07T20:00:54.238Z,39.20
2017-11-07T20:03:20.840Z,30.77
2017-11-07T20:05:47.478Z,31.53
2017-11-07T20:08:14.108Z,28.07
2017-11-07T20:10:40.787Z,28.00
2017-11-07T20:13:07.394Z,29.07
2017-11-07T20:15:34.020Z,29.27
2017-11-07T20:18:00.643Z,28.40
2017-11-07T20:20:27.251Z,29.77
2017-11-07T20:22:53.863Z,29.13
2017-11-07T20:25:20.567Z,31.63
2017-11-07T20:27:47.176Z,31.07
2017-11-07T20:30:13.782Z,32.57
2017-11-07T20:32:40.530Z,32.10
2017-11-07T20:35:07.144Z,30.70
2017-11-07T20:37:33.846Z,28.47
2017-11-07T20:40:00.459Z,29.77
2017-11-07T20:42:27.083Z,29.20
2017-11-07T20:44:53.696Z,27.83
2017-11-07T20:47:20.309Z,29.37
2017-11-07T20:49:46.932Z,29.80
2017-11-07T20:52:13.566Z,29.80
2017-11-07T20:54:40.215Z,32.03
2017-11-07T20:57:06.845Z,28.80
2017-11-07T20:59:33.462Z,28.63
2017-11-07T21:02:00.096Z,27.83
2017-11-07T21:04:26.718Z,31.60
2017-11-07T21:06:53.336Z,29.87
2017-11-07T21:09:20.062Z,30.53
2017-11-07T21:11:46.680Z,32.13
2017-11-07T21:14:13.323Z,31.80
2017-11-07T21:16:39.927Z,31.00
2017-11-07T21:19:06.622Z,32.10
2017-11-07T21:21:33.284Z,30.87
2017-11-07T21:23:59.896Z,30.53
2017-11-07T21:26:26.546Z,30.93
2017-11-07T21:28:53.312Z,30.67
2017-11-07T21:31:19.919Z,32.30
2017-11-07T21:33:46.589Z,31.93
2017-11-07T21:36:13.192Z,32.83
2017-11-07T21:38:39.839Z,32.87
2017-11-07T21:41:06.460Z,33.43
2017-11-07T21:43:33.076Z,37.90
2017-11-07T21:46:00.370Z,31.30
2017-11-07T21:48:27.003Z,34.10
2017-11-07T21:50:53.595Z,32.40
2017-11-07T21:53:20.235Z,33.90
2017-11-07T21:55:46.841Z,33.80
2017-11-07T21:58:13.888Z,34.63
2017-11-07T22:00:40.992Z,33.40
2017-11-07T22:03:07.689Z,32.80
2017-11-07T22:05:34.315Z,32.60
2017-11-07T22:08:00.943Z,33.13
2017-11-07T22:10:27.549Z,30.33
2017-11-07T22:12:54.165Z,33.07
2017-11-07T22:15:20.804Z,32.77
2017-11-07T22:17:53.195Z,34.07
2017-11-07T22:20:22.649Z,30.30
2017-11-07T22:22:49.289Z,30.53
2017-11-07T22:25:16.706Z,32.13
2017-11-07T22:27:43.484Z,31.53
2017-11-07T22:30:10.104Z,30.77
2017-11-07T22:32:42.450Z,30.90
2017-11-07T22:35:09.089Z,29.87
2017-11-07T22:37:35.725Z,33.67
2017-11-07T22:40:02.350Z,33.43
2017-11-07T22:42:28.973Z,31.40
2017-11-07T22:44:55.610Z,31.10
2017-11-07T22:47:22.233Z,30.80
2017-11-07T22:49:48.858Z,31.77
2017-11-07T22:52:15.497Z,28.23
2017-11-07T22:54:42.109Z,29.50
2017-11-07T22:57:08.715Z,30.53
2017-11-07T22:59:35.362Z,32.07
2017-11-07T23:02:01.979Z,31.43
2017-11-07T23:04:30.529Z,31.17
2017-11-07T23:06:57.155Z,31.27
2017-11-07T23:09:23.758Z,30.03
2017-11-07T23:11:53.242Z,31.57
2017-11-07T23:14:19.861Z,30.67
2017-11-07T23:16:46.488Z,30.83
2017-11-07T23:19:13.106Z,30.77
2017-11-07T23:21:39.704Z,30.30
2017-11-07T23:24:06.388Z,31.47
2017-11-07T23:26:33.004Z,33.67
2017-11-07T23:28:59.617Z,31.27
2017-11-07T23:31:26.230Z,29.80
2017-11-07T23:33:52.839Z,31.10
2017-11-07T23:36:19.458Z,27.30
2017-11-07T23:38:46.063Z,31.60
2017-11-07T23:41:12.677Z,29.17
2017-11-07T23:43:39.286Z,27.97
2017-11-07T23:46:05.913Z,32.80
2017-11-07T23:48:32.520Z,34.87
2017-11-07T23:51:01.894Z,33.13
2017-11-07T23:53:28.500Z,32.20
2017-11-07T23:55:55.134Z,31.30
2017-11-07T23:58:21.742Z,29.63
